Phnom Penh, Cambodia

10:33 AM ICT on December 05, 2016 (GMT +0700)
Pochentong International | | Change Station

Elev 33 ft 11.55 °N, 104.84 °E | Updated 33 minutes ago

Partly Cloudy
Partly Cloudy
84 °F
Feels Like 91 °F
N
9
Wind Variable Wind from ENE

Today
High -- | Low -- °F
--% Chance of Precip.
Yesterday
High -- | Low -- °F
Precip. -- in
Pressure 29.86 in
Visibility 6.2 miles
Clouds Few 1700 ft
Heat Index 91 °F
Dew Point 73 °F
Humidity 70%
Rainfall 0.00 in
Snow Depth Not available.
6:06 AM 5:35 PM
Waxing Crescent, 28% visible
METAR VDPP 050300Z 06008KT 030/100 9999 FEW017 29/23 Q1011
Pressure 29.86 in
Visibility 6.2 miles
Clouds Few 1700 ft
Heat Index 91 °F
Dew Point 73 °F
Humidity 70%
Rainfall 0.00 in
Snow Depth Not available.
6:06 AM 5:35 PM
Waxing Crescent, 28% visible
METAR VDPP 050300Z 06008KT 030/100 9999 FEW017 29/23 Q1011

10-Day Weather Forecast

No radar image for this location.
×

Almanac

Astronomy

Dec. 05, 2016 Rise Set
Actual Time
Civil Twilight
Nautical Twilight
Astronomical Twilight
Moon
Length of Visible Light
Length of Day
Tomorrow will be .
, % of the Moon is Illuminated

Today's Extremes

Country Highs Country Lows

Community

WunderPhotos

Upload Photos

1,955,752 photos uploaded!

WunderBlog® & News

Nearby

Air Quality

  Air Quality AQ Index Pollutant
Not available.

Snow Depth

Station Depth Elevation

Earthquake Activity

City Distance Mag. Time & Date
Minimum magnitude displayed is 2.5.

Coastal Water Temperatures

Place Temperature

Stations

Nearby Weather Stations

Station Location Temp. Windchill Dew Point Humidity Wind Precip. Elev Updated Type